createdAt,value
2022-12-05T00:00:01.686Z,29.38
2022-12-05T00:05:07.759Z,30.05
2022-12-05T00:10:10.664Z,28.63
2022-12-05T00:15:13.195Z,27.83
2022-12-05T00:20:15.815Z,29.58
2022-12-05T00:25:19.593Z,30.20
2022-12-05T00:30:22.307Z,28.67
2022-12-05T00:35:25.278Z,27.10
2022-12-05T00:40:31.443Z,29.23
2022-12-05T00:45:34.144Z,29.80
2022-12-05T00:50:36.814Z,29.67
2022-12-05T00:55:39.366Z,29.08
2022-12-05T01:00:41.950Z,28.90
2022-12-05T01:05:44.432Z,29.88
2022-12-05T01:10:54.328Z,29.42
2022-12-05T01:15:57.113Z,28.55
2022-12-05T01:20:59.642Z,29.50
2022-12-05T01:26:04.933Z,29.20
2022-12-05T01:31:08.606Z,27.88
2022-12-05T01:36:12.694Z,30.00
2022-12-05T01:41:17.735Z,28.92
2022-12-05T01:46:20.315Z,29.20
2022-12-05T01:51:26.137Z,28.48
2022-12-05T01:56:28.747Z,28.13
2022-12-05T02:01:31.553Z,28.67
2022-12-05T02:06:34.284Z,29.85
2022-12-05T02:11:42.845Z,27.52
2022-12-05T02:16:48.900Z,28.40
2022-12-05T02:22:10.004Z,28.30
2022-12-05T02:27:13.505Z,28.65
2022-12-05T02:32:33.172Z,29.40
2022-12-05T02:37:45.372Z,29.17
2022-12-05T02:42:51.045Z,27.65
2022-12-05T02:47:54.567Z,28.77
2022-12-05T02:52:58.412Z,29.33
2022-12-05T02:58:03.450Z,34.85
2022-12-05T03:03:11.548Z,28.40
2022-12-05T03:08:17.808Z,30.17
2022-12-05T03:13:28.053Z,28.10
2022-12-05T03:18:33.445Z,25.80
2022-12-05T03:23:39.967Z,27.05
2022-12-05T03:28:56.362Z,26.13
2022-12-05T03:34:00.104Z,30.73
2022-12-05T03:39:05.660Z,24.92
2022-12-05T03:44:13.332Z,25.48
2022-12-05T03:49:33.902Z,24.23
2022-12-05T03:54:43.549Z,27.75
2022-12-05T03:59:48.224Z,25.02
2022-12-05T04:04:56.340Z,25.67
2022-12-05T04:10:02.983Z,27.15
2022-12-05T04:15:10.819Z,22.90
2022-12-05T04:20:33.416Z,24.95
2022-12-05T04:25:40.047Z,34.90
2022-12-05T04:30:49.167Z,27.08
2022-12-05T04:35:57.295Z,27.55
2022-12-05T04:41:04.889Z,22.88
2022-12-05T04:46:09.146Z,22.95
2022-12-05T04:51:16.156Z,21.23
2022-12-05T04:56:19.032Z,20.13
2022-12-05T05:01:25.243Z,22.25
2022-12-05T05:06:28.602Z,22.17
2022-12-05T05:11:35.061Z,22.92
2022-12-05T05:16:39.001Z,19.23
2022-12-05T05:21:43.045Z,24.75
2022-12-05T05:26:45.951Z,18.38
2022-12-05T05:31:48.545Z,17.75
2022-12-05T05:36:51.774Z,19.17
2022-12-05T05:41:54.361Z,17.63
2022-12-05T05:46:57.070Z,15.43
2022-12-05T05:51:59.674Z,14.50
2022-12-05T05:57:02.267Z,15.98
2022-12-05T06:02:04.950Z,15.73
2022-12-05T06:07:07.558Z,14.40
2022-12-05T06:12:10.358Z,13.60
2022-12-05T06:17:13.247Z,13.95
2022-12-05T06:22:15.923Z,13.35
2022-12-05T06:27:18.450Z,12.75
2022-12-05T06:32:21.078Z,13.00
2022-12-05T06:37:23.643Z,14.05
2022-12-05T06:42:26.199Z,11.95
2022-12-05T06:47:28.701Z,11.82
2022-12-05T06:52:31.212Z,12.65
2022-12-05T06:57:33.965Z,11.80
2022-12-05T07:02:36.790Z,12.52
2022-12-05T07:07:39.523Z,11.90
2022-12-05T07:12:42.192Z,13.07
2022-12-05T07:17:44.815Z,13.07
2022-12-05T07:22:47.275Z,12.95
2022-12-05T07:27:49.929Z,13.98
2022-12-05T07:32:52.514Z,13.18
2022-12-05T07:37:55.310Z,13.25
2022-12-05T07:42:57.912Z,13.15
2022-12-05T07:48:00.734Z,13.38
2022-12-05T07:53:03.487Z,13.43
2022-12-05T07:58:06.259Z,13.68
2022-12-05T08:03:08.853Z,13.65
2022-12-05T08:08:11.581Z,12.82
2022-12-05T08:13:14.193Z,11.88
2022-12-05T08:18:16.734Z,13.20
2022-12-05T08:23:19.485Z,11.48
2022-12-05T08:28:22.093Z,12.07
2022-12-05T08:33:24.675Z,12.65
2022-12-05T08:38:27.546Z,12.32
2022-12-05T08:43:30.849Z,12.13
2022-12-05T08:48:34.252Z,12.70
2022-12-05T08:53:42.520Z,12.38
2022-12-05T08:58:46.562Z,12.13
2022-12-05T09:03:49.281Z,11.25
2022-12-05T09:08:56.461Z,11.48
2022-12-05T09:13:59.647Z,11.30
2022-12-05T09:19:02.259Z,11.52
2022-12-05T09:24:04.820Z,10.85
2022-12-05T09:29:11.310Z,11.88
2022-12-05T09:34:20.948Z,11.32
2022-12-05T09:39:24.300Z,11.18
2022-12-05T09:44:39.486Z,12.02
2022-12-05T09:49:47.200Z,11.52
2022-12-05T09:54:55.095Z,11.57
2022-12-05T09:59:59.537Z,11.07
2022-12-05T10:05:23.226Z,11.85
2022-12-05T10:10:40.163Z,13.10
2022-12-05T10:15:55.808Z,13.23
2022-12-05T10:21:04.225Z,13.30
2022-12-05T10:26:09.058Z,14.23
2022-12-05T10:31:17.204Z,14.15
2022-12-05T10:36:20.049Z,13.57
2022-12-05T10:41:25.448Z,14.75
2022-12-05T10:46:29.875Z,14.82
2022-12-05T10:51:37.689Z,14.85
2022-12-05T10:56:52.528Z,16.00
2022-12-05T11:01:57.640Z,16.15
2022-12-05T11:07:04.877Z,16.45
2022-12-05T11:12:17.315Z,17.73
2022-12-05T11:17:34.555Z,16.63
2022-12-05T11:22:37.241Z,18.23
2022-12-05T11:27:40.406Z,17.20
2022-12-05T11:32:43.537Z,17.55
2022-12-05T11:37:46.622Z,17.92
2022-12-05T11:42:52.448Z,17.33
2022-12-05T11:48:13.949Z,17.73
2022-12-05T11:53:38.609Z,17.25
2022-12-05T11:58:55.281Z,17.92
2022-12-05T12:04:07.997Z,17.13
2022-12-05T12:09:19.836Z,15.88
2022-12-05T12:14:41.617Z,15.90
2022-12-05T12:19:47.252Z,15.70
2022-12-05T12:25:05.323Z,15.63
2022-12-05T12:30:30.031Z,14.77
2022-12-05T12:35:57.971Z,14.68
2022-12-05T12:41:07.459Z,15.18
2022-12-05T12:46:13.502Z,16.20
2022-12-05T12:51:16.695Z,15.98
2022-12-05T12:56:38.772Z,19.02
2022-12-05T13:01:42.606Z,15.82
2022-12-05T13:06:58.028Z,15.68
2022-12-05T13:12:09.734Z,16.63
2022-12-05T13:17:16.975Z,16.57
2022-12-05T13:22:23.507Z,16.25
2022-12-05T13:27:29.612Z,16.23
2022-12-05T13:32:34.312Z,16.33
2022-12-05T13:37:56.140Z,15.98
2022-12-05T13:43:02.596Z,15.82
2022-12-05T13:48:13.635Z,15.50
2022-12-05T13:53:31.134Z,16.00
2022-12-05T13:58:40.087Z,16.23
2022-12-05T14:03:50.256Z,16.52
2022-12-05T14:08:58.902Z,16.55
2022-12-05T14:14:04.876Z,17.33
2022-12-05T14:19:43.547Z,17.13
2022-12-05T14:25:15.770Z,17.40
2022-12-05T14:30:37.379Z,17.75
2022-12-05T14:35:41.733Z,17.75
2022-12-05T14:40:44.860Z,18.40
2022-12-05T14:45:58.881Z,20.20
2022-12-05T14:51:02.774Z,18.98
2022-12-05T14:56:16.721Z,23.73
2022-12-05T15:01:34.083Z,20.75
2022-12-05T15:06:57.067Z,19.60
2022-12-05T15:17:07.191Z,19.50
2022-12-05T15:22:13.607Z,20.13
2022-12-05T15:27:17.251Z,21.00
2022-12-05T15:32:23.823Z,22.30
2022-12-05T15:37:27.960Z,20.17
2022-12-05T15:42:32.958Z,20.60
2022-12-05T15:47:36.123Z,21.52
2022-12-05T15:52:43.026Z,23.10
2022-12-05T15:57:59.196Z,22.15
2022-12-05T16:03:07.996Z,20.98
2022-12-05T16:08:10.810Z,22.67
2022-12-05T16:13:15.281Z,22.00
2022-12-05T16:18:25.952Z,23.17
2022-12-05T16:23:37.607Z,22.38
2022-12-05T16:28:40.307Z,21.30
2022-12-05T16:33:44.117Z,22.27
2022-12-05T16:38:48.626Z,21.80
2022-12-05T16:43:54.187Z,21.92
2022-12-05T16:49:17.515Z,22.98
2022-12-05T16:59:25.772Z,22.83
2022-12-05T17:04:29.547Z,22.15
2022-12-05T17:09:32.846Z,21.95
2022-12-05T17:14:35.711Z,21.58
2022-12-05T17:19:38.573Z,20.23
2022-12-05T17:24:41.291Z,20.58
2022-12-05T17:29:43.965Z,20.65
2022-12-05T17:34:46.586Z,21.65
2022-12-05T17:39:49.359Z,21.13
2022-12-05T17:44:51.906Z,20.90
2022-12-05T17:49:54.632Z,20.13
2022-12-05T17:54:57.535Z,20.98
2022-12-05T18:00:00.438Z,21.35
2022-12-05T18:05:03.354Z,20.83
2022-12-05T18:10:12.804Z,21.08
2022-12-05T18:15:16.225Z,21.98
2022-12-05T18:20:18.894Z,21.60
2022-12-05T18:25:21.641Z,21.83
2022-12-05T18:30:25.062Z,21.67
2022-12-05T18:35:41.238Z,21.17
2022-12-05T18:40:44.839Z,21.40
2022-12-05T18:45:54.807Z,22.75
2022-12-05T18:51:06.833Z,21.25
2022-12-05T18:56:25.179Z,22.20
2022-12-05T19:01:29.858Z,23.05
2022-12-05T19:06:33.453Z,23.33
2022-12-05T19:11:36.350Z,27.90
2022-12-05T19:16:42.432Z,23.48
2022-12-05T19:21:45.868Z,22.80
2022-12-05T19:26:49.078Z,24.00
2022-12-05T19:31:55.315Z,24.52
2022-12-05T19:37:01.310Z,23.88
2022-12-05T19:42:08.658Z,25.38
2022-12-05T19:47:11.534Z,28.55
2022-12-05T19:52:18.051Z,24.30
2022-12-05T19:57:20.976Z,23.70
2022-12-05T20:02:27.494Z,24.80
2022-12-05T20:07:30.540Z,25.17
2022-12-05T20:12:33.620Z,22.65
2022-12-05T20:17:36.585Z,21.42
2022-12-05T20:22:40.804Z,20.30
2022-12-05T20:27:43.819Z,18.45
2022-12-05T20:32:49.199Z,18.23
2022-12-05T20:37:56.126Z,17.17
2022-12-05T20:43:00.312Z,17.17
2022-12-05T20:48:02.998Z,17.52
2022-12-05T20:53:05.935Z,17.90
2022-12-05T20:58:11.659Z,17.45
2022-12-05T21:03:17.312Z,18.65
2022-12-05T21:08:22.203Z,21.10
2022-12-05T21:13:27.930Z,20.35
2022-12-05T21:18:30.923Z,20.73
2022-12-05T21:23:34.071Z,20.10
2022-12-05T21:28:37.085Z,20.95
2022-12-05T21:33:43.233Z,22.85
2022-12-05T21:38:49.561Z,20.45
2022-12-05T21:43:57.093Z,19.42
2022-12-05T21:48:59.909Z,19.02
2022-12-05T21:54:09.195Z,17.10
2022-12-05T21:59:12.116Z,17.35
2022-12-05T22:04:14.769Z,18.50
2022-12-05T22:09:17.548Z,15.73
2022-12-05T22:14:20.251Z,15.95
2022-12-05T22:19:22.889Z,15.13
2022-12-05T22:24:25.588Z,14.57
2022-12-05T22:29:30.547Z,15.27
2022-12-05T22:34:33.185Z,14.07
2022-12-05T22:39:35.751Z,13.68
2022-12-05T22:44:38.233Z,13.43
2022-12-05T22:49:40.795Z,14.80
2022-12-05T22:54:43.330Z,13.18
2022-12-05T22:59:45.940Z,14.20
2022-12-05T23:04:48.617Z,14.82
2022-12-05T23:09:51.293Z,14.93
2022-12-05T23:14:53.855Z,15.45
2022-12-05T23:19:56.523Z,13.35
2022-12-05T23:24:59.264Z,14.60
2022-12-05T23:30:02.109Z,14.68
2022-12-05T23:35:04.846Z,14.38
2022-12-05T23:40:07.708Z,14.63
2022-12-05T23:45:10.483Z,17.60
2022-12-05T23:50:12.977Z,15.35
2022-12-05T23:55:15.515Z,12.57
